sensor_id;sensor_type;location;lat;lon;timestamp;P1;durP1;ratioP1;P2;durP2;ratioP2
71162;SDS011;58858;50.948;6.566;2022-07-19T00:05:03;59.20;;;10.45;;
71162;SDS011;58858;50.948;6.566;2022-07-19T00:15:05;51.85;;;7.95;;
71162;SDS011;58858;50.948;6.566;2022-07-19T00:25:08;25.15;;;5.65;;
71162;SDS011;58858;50.948;6.566;2022-07-19T00:35:09;14.65;;;4.72;;
71162;SDS011;58858;50.948;6.566;2022-07-19T00:45:10;19.52;;;4.32;;
71162;SDS011;58858;50.948;6.566;2022-07-19T00:55:13;9.15;;;2.90;;
71162;SDS011;58858;50.948;6.566;2022-07-19T01:05:14;25.77;;;5.05;;
71162;SDS011;58858;50.948;6.566;2022-07-19T01:15:20;7.38;;;2.63;;
71162;SDS011;58858;50.948;6.566;2022-07-19T01:25:22;22.13;;;3.40;;
71162;SDS011;58858;50.948;6.566;2022-07-19T01:35:25;6.45;;;3.30;;
71162;SDS011;58858;50.948;6.566;2022-07-19T01:45:26;10.30;;;2.90;;
71162;SDS011;58858;50.948;6.566;2022-07-19T01:55:27;8.48;;;2.97;;
71162;SDS011;58858;50.948;6.566;2022-07-19T02:05:28;7.47;;;2.60;;
71162;SDS011;58858;50.948;6.566;2022-07-19T02:15:30;7.05;;;2.05;;
71162;SDS011;58858;50.948;6.566;2022-07-19T02:25:34;4.10;;;2.45;;
71162;SDS011;58858;50.948;6.566;2022-07-19T02:35:35;5.13;;;2.75;;
71162;SDS011;58858;50.948;6.566;2022-07-19T02:45:36;10.43;;;2.53;;
71162;SDS011;58858;50.948;6.566;2022-07-19T02:55:37;7.80;;;2.30;;
71162;SDS011;58858;50.948;6.566;2022-07-19T03:05:38;9.68;;;3.05;;
71162;SDS011;58858;50.948;6.566;2022-07-19T03:15:39;4.38;;;2.35;;
71162;SDS011;58858;50.948;6.566;2022-07-19T03:25:40;9.52;;;3.05;;
71162;SDS011;58858;50.948;6.566;2022-07-19T03:35:42;5.32;;;2.72;;
71162;SDS011;58858;50.948;6.566;2022-07-19T03:45:45;5.53;;;2.40;;
71162;SDS011;58858;50.948;6.566;2022-07-19T03:55:46;6.30;;;2.67;;
71162;SDS011;58858;50.948;6.566;2022-07-19T04:05:47;5.57;;;2.30;;
71162;SDS011;58858;50.948;6.566;2022-07-19T04:15:48;3.40;;;2.17;;
71162;SDS011;58858;50.948;6.566;2022-07-19T04:25:49;7.43;;;2.88;;
71162;SDS011;58858;50.948;6.566;2022-07-19T04:35:50;8.50;;;2.83;;
71162;SDS011;58858;50.948;6.566;2022-07-19T04:45:52;4.95;;;2.78;;
71162;SDS011;58858;50.948;6.566;2022-07-19T04:55:53;15.15;;;2.72;;
71162;SDS011;58858;50.948;6.566;2022-07-19T05:05:54;4.25;;;2.30;;
71162;SDS011;58858;50.948;6.566;2022-07-19T05:15:55;4.07;;;2.05;;
71162;SDS011;58858;50.948;6.566;2022-07-19T05:25:56;8.90;;;2.65;;
71162;SDS011;58858;50.948;6.566;2022-07-19T05:35:57;14.35;;;3.15;;
71162;SDS011;58858;50.948;6.566;2022-07-19T05:45:59;7.38;;;2.90;;
71162;SDS011;58858;50.948;6.566;2022-07-19T05:56:00;6.45;;;2.83;;
71162;SDS011;58858;50.948;6.566;2022-07-19T06:06:01;4.88;;;2.40;;
71162;SDS011;58858;50.948;6.566;2022-07-19T06:16:02;3.70;;;2.58;;
71162;SDS011;58858;50.948;6.566;2022-07-19T06:26:04;14.48;;;3.20;;
71162;SDS011;58858;50.948;6.566;2022-07-19T06:36:06;4.75;;;2.90;;
71162;SDS011;58858;50.948;6.566;2022-07-19T06:46:08;5.10;;;2.55;;
71162;SDS011;58858;50.948;6.566;2022-07-19T06:56:09;4.18;;;2.63;;
71162;SDS011;58858;50.948;6.566;2022-07-19T07:06:10;6.40;;;3.25;;
71162;SDS011;58858;50.948;6.566;2022-07-19T07:16:11;8.45;;;3.03;;
71162;SDS011;58858;50.948;6.566;2022-07-19T07:26:12;13.23;;;3.75;;
71162;SDS011;58858;50.948;6.566;2022-07-19T07:36:14;11.07;;;3.17;;
71162;SDS011;58858;50.948;6.566;2022-07-19T07:46:15;14.13;;;3.70;;
71162;SDS011;58858;50.948;6.566;2022-07-19T07:56:16;4.97;;;3.00;;
71162;SDS011;58858;50.948;6.566;2022-07-19T08:06:17;8.50;;;3.17;;
71162;SDS011;58858;50.948;6.566;2022-07-19T08:16:19;7.28;;;2.70;;
71162;SDS011;58858;50.948;6.566;2022-07-19T08:26:20;8.82;;;3.42;;
71162;SDS011;58858;50.948;6.566;2022-07-19T08:36:22;17.08;;;3.22;;
71162;SDS011;58858;50.948;6.566;2022-07-19T08:46:23;23.98;;;3.95;;
71162;SDS011;58858;50.948;6.566;2022-07-19T08:56:24;13.32;;;3.33;;
71162;SDS011;58858;50.948;6.566;2022-07-19T09:06:45;7.95;;;3.10;;
71162;SDS011;58858;50.948;6.566;2022-07-19T09:16:53;10.23;;;2.83;;
71162;SDS011;58858;50.948;6.566;2022-07-19T09:27:05;14.68;;;3.45;;
71162;SDS011;58858;50.948;6.566;2022-07-19T09:37:12;10.40;;;3.88;;
71162;SDS011;58858;50.948;6.566;2022-07-19T09:47:16;8.75;;;3.15;;
71162;SDS011;58858;50.948;6.566;2022-07-19T09:57:34;13.77;;;3.67;;
71162;SDS011;58858;50.948;6.566;2022-07-19T10:07:39;8.77;;;2.97;;
71162;SDS011;58858;50.948;6.566;2022-07-19T10:17:54;6.22;;;2.50;;
71162;SDS011;58858;50.948;6.566;2022-07-19T10:28:01;6.40;;;2.13;;
71162;SDS011;58858;50.948;6.566;2022-07-19T10:48:05;13.18;;;3.20;;
71162;SDS011;58858;50.948;6.566;2022-07-19T10:58:10;8.07;;;2.15;;
71162;SDS011;58858;50.948;6.566;2022-07-19T11:08:12;6.00;;;2.42;;
71162;SDS011;58858;50.948;6.566;2022-07-19T11:18:13;10.25;;;3.03;;
71162;SDS011;58858;50.948;6.566;2022-07-19T11:28:23;3.72;;;2.33;;
71162;SDS011;58858;50.948;6.566;2022-07-19T11:38:38;13.00;;;2.72;;
71162;SDS011;58858;50.948;6.566;2022-07-19T11:48:39;10.10;;;2.67;;
71162;SDS011;58858;50.948;6.566;2022-07-19T11:58:40;9.65;;;2.90;;
71162;SDS011;58858;50.948;6.566;2022-07-19T12:08:43;11.02;;;2.97;;
71162;SDS011;58858;50.948;6.566;2022-07-19T12:28:50;8.98;;;2.30;;
71162;SDS011;58858;50.948;6.566;2022-07-19T12:48:52;6.53;;;2.10;;
71162;SDS011;58858;50.948;6.566;2022-07-19T13:09:12;6.07;;;2.53;;
71162;SDS011;58858;50.948;6.566;2022-07-19T13:29:14;5.07;;;2.43;;
71162;SDS011;58858;50.948;6.566;2022-07-19T13:39:18;11.52;;;2.35;;
71162;SDS011;58858;50.948;6.566;2022-07-19T13:59:20;1.70;;;1.60;;
71162;SDS011;58858;50.948;6.566;2022-07-19T14:19:22;3.50;;;2.30;;
71162;SDS011;58858;50.948;6.566;2022-07-19T14:29:23;12.55;;;2.25;;
71162;SDS011;58858;50.948;6.566;2022-07-19T14:39:24;6.88;;;2.42;;
71162;SDS011;58858;50.948;6.566;2022-07-19T14:49:25;5.45;;;2.15;;
71162;SDS011;58858;50.948;6.566;2022-07-19T14:59:26;3.63;;;1.47;;
71162;SDS011;58858;50.948;6.566;2022-07-19T15:09:27;5.20;;;2.23;;
71162;SDS011;58858;50.948;6.566;2022-07-19T15:19:29;6.47;;;2.20;;
71162;SDS011;58858;50.948;6.566;2022-07-19T15:29:30;9.63;;;3.03;;
71162;SDS011;58858;50.948;6.566;2022-07-19T15:39:31;6.10;;;2.40;;
71162;SDS011;58858;50.948;6.566;2022-07-19T15:49:32;7.85;;;2.42;;
71162;SDS011;58858;50.948;6.566;2022-07-19T16:09:34;5.13;;;2.47;;
71162;SDS011;58858;50.948;6.566;2022-07-19T16:19:35;5.20;;;2.80;;
71162;SDS011;58858;50.948;6.566;2022-07-19T16:29:36;8.93;;;2.97;;
71162;SDS011;58858;50.948;6.566;2022-07-19T16:39:37;6.07;;;2.33;;
71162;SDS011;58858;50.948;6.566;2022-07-19T16:49:39;4.97;;;2.83;;
71162;SDS011;58858;50.948;6.566;2022-07-19T16:59:40;15.87;;;3.90;;
71162;SDS011;58858;50.948;6.566;2022-07-19T17:09:41;7.18;;;2.45;;
71162;SDS011;58858;50.948;6.566;2022-07-19T17:19:42;4.78;;;2.97;;
71162;SDS011;58858;50.948;6.566;2022-07-19T17:29:45;7.75;;;2.63;;
71162;SDS011;58858;50.948;6.566;2022-07-19T17:39:46;5.63;;;2.58;;
71162;SDS011;58858;50.948;6.566;2022-07-19T17:49:50;4.32;;;2.50;;
71162;SDS011;58858;50.948;6.566;2022-07-19T17:59:51;9.27;;;3.00;;
71162;SDS011;58858;50.948;6.566;2022-07-19T18:09:52;7.13;;;2.80;;
71162;SDS011;58858;50.948;6.566;2022-07-19T18:19:53;13.07;;;8.63;;
71162;SDS011;58858;50.948;6.566;2022-07-19T18:29:55;7.60;;;3.03;;
71162;SDS011;58858;50.948;6.566;2022-07-19T18:39:56;10.50;;;3.00;;
71162;SDS011;58858;50.948;6.566;2022-07-19T18:49:57;11.15;;;2.83;;
71162;SDS011;58858;50.948;6.566;2022-07-19T18:59:58;9.27;;;2.75;;
71162;SDS011;58858;50.948;6.566;2022-07-19T19:09:59;7.60;;;3.38;;
71162;SDS011;58858;50.948;6.566;2022-07-19T19:20:00;7.35;;;2.90;;
71162;SDS011;58858;50.948;6.566;2022-07-19T19:30:01;9.85;;;3.50;;
71162;SDS011;58858;50.948;6.566;2022-07-19T19:40:02;10.88;;;2.85;;
71162;SDS011;58858;50.948;6.566;2022-07-19T19:50:04;6.68;;;2.92;;
71162;SDS011;58858;50.948;6.566;2022-07-19T20:00:06;10.13;;;3.05;;
71162;SDS011;58858;50.948;6.566;2022-07-19T20:10:14;18.58;;;3.83;;
71162;SDS011;58858;50.948;6.566;2022-07-19T20:20:15;15.07;;;3.50;;
71162;SDS011;58858;50.948;6.566;2022-07-19T20:30:17;15.60;;;3.40;;
71162;SDS011;58858;50.948;6.566;2022-07-19T20:40:18;11.95;;;3.42;;
71162;SDS011;58858;50.948;6.566;2022-07-19T20:50:19;8.85;;;3.90;;
71162;SDS011;58858;50.948;6.566;2022-07-19T21:00:20;9.55;;;3.97;;
71162;SDS011;58858;50.948;6.566;2022-07-19T21:10:21;18.88;;;4.10;;
71162;SDS011;58858;50.948;6.566;2022-07-19T21:20:23;14.10;;;4.53;;
71162;SDS011;58858;50.948;6.566;2022-07-19T21:30:25;6.35;;;3.65;;
71162;SDS011;58858;50.948;6.566;2022-07-19T21:40:26;7.43;;;3.45;;
71162;SDS011;58858;50.948;6.566;2022-07-19T21:50:28;10.90;;;3.53;;
71162;SDS011;58858;50.948;6.566;2022-07-19T22:00:29;8.88;;;2.97;;
71162;SDS011;58858;50.948;6.566;2022-07-19T22:10:30;17.40;;;4.35;;
71162;SDS011;58858;50.948;6.566;2022-07-19T22:20:31;5.63;;;3.65;;
71162;SDS011;58858;50.948;6.566;2022-07-19T22:30:32;7.55;;;3.35;;
71162;SDS011;58858;50.948;6.566;2022-07-19T22:40:33;8.60;;;3.90;;
71162;SDS011;58858;50.948;6.566;2022-07-19T22:50:34;6.47;;;3.50;;
71162;SDS011;58858;50.948;6.566;2022-07-19T23:00:40;14.70;;;4.40;;
71162;SDS011;58858;50.948;6.566;2022-07-19T23:10:42;8.63;;;3.45;;
71162;SDS011;58858;50.948;6.566;2022-07-19T23:20:43;8.07;;;3.70;;
71162;SDS011;58858;50.948;6.566;2022-07-19T23:30:44;8.20;;;3.42;;
71162;SDS011;58858;50.948;6.566;2022-07-19T23:40:48;14.88;;;3.35;;
71162;SDS011;58858;50.948;6.566;2022-07-19T23:50:50;4.57;;;3.03;;
